createdAt,value
2022-12-15T00:01:38.206Z,86.86
2022-12-15T00:04:29.954Z,86.78
2022-12-15T00:07:21.595Z,87.04
2022-12-15T00:10:15.166Z,86.77
2022-12-15T00:13:06.840Z,86.88
2022-12-15T00:15:59.141Z,86.74
2022-12-15T00:18:50.629Z,86.56
2022-12-15T00:21:42.357Z,85.97
2022-12-15T00:24:34.213Z,86.29
2022-12-15T00:27:27.460Z,86.16
2022-12-15T00:30:19.249Z,86.43
2022-12-15T00:33:11.339Z,86.41
2022-12-15T00:36:03.220Z,86.71
2022-12-15T00:38:47.677Z,86.44
2022-12-15T00:41:21.994Z,86.50
2022-12-15T00:43:57.868Z,86.11
2022-12-15T00:46:50.174Z,86.06
2022-12-15T00:49:42.922Z,85.62
2022-12-15T00:52:37.215Z,85.95
2022-12-15T00:55:29.369Z,86.02
2022-12-15T00:58:21.264Z,85.97
2022-12-15T01:01:14.684Z,86.23
2022-12-15T01:04:06.476Z,86.74
2022-12-15T01:06:58.598Z,86.89
2022-12-15T01:09:50.002Z,86.83
2022-12-15T01:12:41.984Z,86.61
2022-12-15T01:15:33.749Z,86.38
2022-12-15T01:18:27.496Z,86.49
2022-12-15T01:21:03.559Z,86.51
2022-12-15T01:23:39.049Z,86.15
2022-12-15T01:26:13.241Z,85.97
2022-12-15T01:28:47.748Z,85.87
2022-12-15T01:31:21.927Z,86.03
2022-12-15T01:33:57.866Z,86.70
2022-12-15T01:36:32.143Z,86.21
2022-12-15T01:39:06.784Z,86.81
2022-12-15T01:41:40.157Z,86.26
2022-12-15T01:44:19.353Z,87.37
2022-12-15T01:46:55.948Z,87.82
2022-12-15T01:49:33.568Z,87.80
2022-12-15T01:52:09.783Z,87.51
2022-12-15T01:54:48.620Z,87.38
2022-12-15T01:57:26.672Z,87.44
2022-12-15T02:00:05.424Z,87.13
2022-12-15T02:02:41.239Z,86.79
2022-12-15T02:05:17.093Z,87.12
2022-12-15T02:07:51.482Z,86.69
2022-12-15T02:10:31.620Z,86.48
2022-12-15T02:13:15.017Z,86.36
2022-12-15T02:15:56.303Z,86.85
2022-12-15T02:18:37.247Z,86.43
2022-12-15T02:21:19.832Z,86.21
2022-12-15T02:24:36.665Z,86.12
2022-12-15T02:28:00.415Z,86.26
2022-12-15T02:30:46.265Z,85.99
2022-12-15T02:33:27.420Z,85.94
2022-12-15T02:36:13.821Z,85.86
2022-12-15T02:38:48.291Z,85.66
2022-12-15T02:41:38.607Z,86.50
2022-12-15T02:44:18.082Z,85.81
2022-12-15T02:47:16.743Z,86.29
2022-12-15T02:50:07.003Z,86.27
2022-12-15T02:52:53.251Z,86.54
2022-12-15T02:55:35.799Z,85.39
2022-12-15T02:58:16.430Z,86.22
2022-12-15T03:00:56.507Z,87.04
2022-12-15T03:03:34.427Z,87.78
2022-12-15T03:06:11.621Z,88.18
2022-12-15T03:08:46.465Z,88.08
2022-12-15T03:11:20.900Z,87.95
2022-12-15T03:13:55.580Z,87.03
2022-12-15T03:16:30.094Z,86.78
2022-12-15T03:19:05.693Z,87.10
2022-12-15T03:21:40.146Z,87.26
2022-12-15T03:24:14.409Z,86.81
2022-12-15T03:26:50.292Z,86.87
2022-12-15T03:29:24.510Z,86.29
2022-12-15T03:31:59.047Z,86.25
2022-12-15T03:34:34.648Z,86.22
2022-12-15T03:37:09.283Z,86.34
2022-12-15T03:39:43.571Z,85.78
2022-12-15T03:42:38.522Z,85.73
2022-12-15T03:45:12.890Z,85.87
2022-12-15T03:47:48.568Z,86.06
2022-12-15T03:50:26.716Z,86.72
2022-12-15T03:53:03.468Z,86.34
2022-12-15T03:55:37.724Z,86.06
2022-12-15T03:58:12.156Z,86.84
2022-12-15T04:00:46.485Z,87.54
2022-12-15T04:03:21.799Z,87.09
2022-12-15T04:05:57.394Z,86.76
2022-12-15T04:08:32.364Z,86.96
2022-12-15T04:11:06.925Z,87.19
2022-12-15T04:13:41.313Z,87.47
2022-12-15T04:16:19.820Z,87.24
2022-12-15T04:19:08.750Z,86.72
2022-12-15T04:21:44.372Z,86.91
2022-12-15T04:24:36.403Z,86.49
2022-12-15T04:27:28.461Z,87.91
2022-12-15T04:30:20.772Z,87.37
2022-12-15T04:33:13.404Z,87.23
2022-12-15T04:36:06.977Z,87.40
2022-12-15T04:38:59.823Z,87.53
2022-12-15T04:41:51.779Z,87.99
2022-12-15T04:44:43.202Z,100.00
2022-12-15T04:47:35.333Z,97.91
2022-12-15T04:50:27.332Z,93.27
2022-12-15T04:53:27.560Z,92.85
2022-12-15T04:56:21.053Z,90.57
2022-12-15T04:59:13.520Z,90.30
2022-12-15T05:02:05.880Z,90.23
2022-12-15T05:04:58.300Z,89.11
2022-12-15T05:07:50.111Z,89.54
2022-12-15T05:10:42.477Z,89.20
2022-12-15T05:13:35.427Z,89.30
2022-12-15T05:16:27.906Z,88.98
2022-12-15T05:19:19.517Z,88.91
2022-12-15T05:22:11.579Z,89.13
2022-12-15T05:25:03.128Z,89.07
2022-12-15T05:27:55.276Z,88.53
2022-12-15T05:30:48.331Z,88.56
2022-12-15T05:33:22.794Z,88.54
2022-12-15T05:35:58.663Z,88.43
2022-12-15T05:38:33.337Z,100.00
2022-12-15T05:41:07.595Z,100.00
2022-12-15T05:43:42.108Z,95.30
2022-12-15T05:46:17.626Z,94.27
2022-12-15T05:48:52.126Z,92.72
2022-12-15T05:51:26.306Z,91.30
2022-12-15T05:54:00.794Z,89.77
2022-12-15T05:56:34.952Z,89.89
2022-12-15T05:59:09.748Z,90.88
2022-12-15T06:01:47.783Z,100.00
2022-12-15T06:04:22.345Z,97.14
2022-12-15T06:06:56.561Z,92.42
2022-12-15T06:09:31.006Z,90.59
2022-12-15T06:12:05.511Z,89.70
2022-12-15T06:14:40.005Z,90.08
2022-12-15T06:17:15.682Z,89.64
2022-12-15T06:19:50.367Z,89.80
2022-12-15T06:22:24.539Z,89.41
2022-12-15T06:24:59.041Z,89.83
2022-12-15T06:27:33.452Z,89.59
2022-12-15T06:30:08.889Z,88.46
2022-12-15T06:32:44.411Z,88.89
2022-12-15T06:35:18.936Z,88.67
2022-12-15T06:37:53.208Z,89.76
2022-12-15T06:40:27.783Z,100.00
2022-12-15T06:43:01.961Z,98.84
2022-12-15T06:45:36.573Z,94.43
2022-12-15T06:48:12.160Z,96.58
2022-12-15T06:50:46.715Z,94.24
2022-12-15T06:53:25.692Z,93.03
2022-12-15T06:56:03.854Z,90.29
2022-12-15T06:58:38.038Z,89.61
2022-12-15T07:01:12.876Z,89.64
2022-12-15T07:03:48.742Z,90.01
2022-12-15T07:06:24.325Z,89.64
2022-12-15T07:08:58.588Z,89.53
2022-12-15T07:11:33.205Z,89.47
2022-12-15T07:14:07.345Z,89.73
2022-12-15T07:16:41.911Z,88.86
2022-12-15T07:19:17.794Z,88.74
2022-12-15T07:21:53.007Z,88.40
2022-12-15T07:24:27.164Z,88.51
2022-12-15T07:27:01.816Z,100.00
2022-12-15T07:29:36.166Z,100.00
2022-12-15T07:32:10.678Z,99.75
2022-12-15T07:34:46.874Z,98.36
2022-12-15T07:37:22.792Z,90.07
2022-12-15T07:39:57.015Z,89.57
2022-12-15T07:42:31.777Z,91.38
2022-12-15T07:45:07.073Z,88.76
2022-12-15T07:47:41.810Z,88.93
2022-12-15T07:50:17.561Z,89.88
2022-12-15T07:52:52.658Z,90.13
2022-12-15T07:55:50.160Z,89.85
2022-12-15T07:58:21.690Z,89.75
2022-12-15T08:01:00.347Z,90.07
2022-12-15T08:03:35.783Z,90.62
2022-12-15T08:06:13.366Z,89.68
2022-12-15T08:08:50.816Z,89.76
2022-12-15T08:11:26.006Z,90.16
2022-12-15T08:14:02.968Z,89.74
2022-12-15T08:16:41.100Z,90.30
2022-12-15T08:19:16.939Z,90.37
2022-12-15T08:21:52.508Z,90.28
2022-12-15T08:24:27.325Z,90.04
2022-12-15T08:27:01.470Z,89.27
2022-12-15T08:29:52.463Z,88.69
2022-12-15T08:32:26.977Z,88.07
2022-12-15T08:35:01.389Z,88.80
2022-12-15T08:37:36.952Z,88.47
2022-12-15T08:40:12.248Z,88.90
2022-12-15T08:42:46.635Z,88.53
2022-12-15T08:45:21.085Z,89.09
2022-12-15T08:47:57.300Z,99.64
2022-12-15T08:50:32.117Z,100.00
2022-12-15T08:53:30.229Z,95.25
2022-12-15T08:56:05.952Z,91.50
2022-12-15T08:58:40.807Z,88.28
2022-12-15T09:01:22.776Z,90.11
2022-12-15T09:03:59.462Z,89.64
2022-12-15T09:06:36.834Z,89.52
2022-12-15T09:09:14.255Z,90.91
2022-12-15T09:11:49.018Z,91.49
2022-12-15T09:14:29.138Z,91.14
2022-12-15T09:17:04.286Z,90.58
2022-12-15T09:19:38.540Z,90.10
2022-12-15T09:22:13.025Z,89.26
2022-12-15T09:24:50.012Z,90.49
2022-12-15T09:27:24.516Z,90.21
2022-12-15T09:29:59.247Z,90.23
2022-12-15T09:32:33.831Z,90.66
2022-12-15T09:35:08.746Z,90.44
2022-12-15T09:37:50.005Z,90.55
2022-12-15T09:40:27.363Z,90.36
2022-12-15T09:43:32.875Z,90.78
2022-12-15T09:46:04.824Z,90.61
2022-12-15T09:48:43.064Z,100.00
2022-12-15T09:51:20.029Z,96.53
2022-12-15T09:53:55.894Z,100.00
2022-12-15T09:56:42.219Z,87.97
2022-12-15T09:59:27.477Z,91.35
2022-12-15T10:02:18.895Z,89.19
2022-12-15T10:05:02.080Z,87.53
2022-12-15T10:07:43.940Z,88.58
2022-12-15T10:10:33.895Z,87.58
2022-12-15T10:13:16.395Z,87.21
2022-12-15T10:15:58.844Z,88.56
2022-12-15T10:18:38.630Z,88.81
2022-12-15T10:21:15.064Z,88.23
2022-12-15T17:47:10.674Z,98.87
2022-12-15T17:49:47.419Z,98.87
2022-12-15T17:52:28.696Z,100.00
2022-12-15T17:55:04.534Z,100.00
2022-12-15T17:57:38.818Z,100.00
2022-12-15T18:00:21.434Z,100.00
2022-12-15T18:02:59.371Z,100.00
2022-12-15T18:05:33.712Z,100.00
2022-12-15T18:08:15.135Z,100.00
2022-12-15T18:10:50.719Z,100.00
2022-12-15T18:13:30.323Z,100.00
2022-12-15T18:16:08.059Z,100.00
2022-12-15T18:18:44.359Z,100.00
2022-12-15T18:21:19.435Z,100.00
2022-12-15T18:23:59.854Z,100.00
2022-12-15T18:26:38.042Z,100.00
2022-12-15T18:29:14.983Z,100.00
2022-12-15T18:31:50.627Z,100.00
2022-12-15T18:34:27.590Z,100.00
2022-12-15T18:37:01.795Z,100.00
2022-12-15T18:39:36.344Z,100.00
2022-12-15T18:42:16.110Z,100.00
2022-12-15T18:44:53.160Z,100.00
2022-12-15T18:47:27.841Z,100.00
2022-12-15T18:50:04.205Z,100.00
2022-12-15T18:52:38.938Z,100.00
2022-12-15T18:55:21.717Z,100.00
2022-12-15T18:57:56.364Z,100.00
2022-12-15T19:00:32.437Z,100.00
2022-12-15T19:03:07.042Z,100.00
2022-12-15T19:05:43.392Z,100.00
2022-12-15T19:08:20.339Z,100.00
2022-12-15T19:10:57.865Z,100.00
2022-12-15T19:13:35.085Z,100.00
2022-12-15T19:16:18.138Z,100.00
2022-12-15T19:19:13.898Z,100.00
2022-12-15T19:22:10.663Z,100.00
2022-12-15T19:24:58.649Z,100.00
2022-12-15T19:27:33.612Z,100.00
2022-12-15T19:30:16.491Z,100.00
2022-12-15T19:32:51.148Z,100.00
2022-12-15T19:35:25.899Z,100.00
2022-12-15T19:38:04.575Z,100.00
2022-12-15T19:40:39.206Z,100.00
2022-12-15T19:43:17.151Z,100.00
2022-12-15T19:45:52.038Z,100.00
2022-12-15T19:48:27.073Z,100.00
2022-12-15T19:51:01.540Z,100.00
2022-12-15T19:53:40.830Z,100.00
2022-12-15T19:56:17.929Z,100.00
2022-12-15T19:58:52.668Z,100.00
2022-12-15T20:01:27.395Z,100.00
2022-12-15T20:04:02.087Z,100.00
2022-12-15T20:06:36.583Z,100.00
2022-12-15T20:09:16.298Z,100.00
2022-12-15T20:11:50.529Z,100.00
2022-12-15T20:14:26.232Z,100.00
2022-12-15T20:17:00.347Z,100.00
2022-12-15T20:19:34.838Z,100.00
2022-12-15T20:22:15.451Z,100.00
2022-12-15T20:24:51.732Z,100.00
2022-12-15T20:27:25.934Z,100.00
2022-12-15T20:30:00.655Z,100.00
2022-12-15T20:32:38.393Z,100.00
2022-12-15T20:35:16.251Z,100.00
2022-12-15T20:37:52.647Z,100.00
2022-12-15T20:40:30.736Z,100.00
2022-12-15T20:43:10.334Z,100.00
2022-12-15T20:45:58.292Z,100.00
2022-12-15T20:48:34.859Z,100.00
2022-12-15T20:51:15.936Z,100.00
2022-12-15T20:53:51.283Z,100.00
2022-12-15T20:56:27.717Z,100.00
2022-12-15T20:59:02.099Z,100.00
2022-12-15T21:01:39.027Z,100.00
2022-12-15T21:04:25.532Z,100.00
2022-12-15T21:07:00.437Z,100.00
2022-12-15T21:09:34.986Z,100.00
2022-12-15T21:12:17.617Z,100.00
2022-12-15T21:14:52.210Z,100.00
2022-12-15T21:17:27.661Z,100.00
2022-12-15T21:20:02.024Z,100.00
2022-12-15T21:22:36.849Z,100.00
2022-12-15T21:25:25.999Z,100.00
2022-12-15T21:28:01.833Z,100.00
2022-12-15T21:30:36.361Z,100.00
2022-12-15T21:33:11.265Z,100.00
2022-12-15T21:35:47.335Z,100.00
2022-12-15T21:38:41.583Z,100.00
2022-12-15T21:41:18.615Z,100.00
2022-12-15T21:43:54.970Z,100.00
2022-12-15T21:46:29.959Z,100.00
2022-12-15T21:49:17.558Z,100.00
2022-12-15T21:51:55.010Z,100.00
2022-12-15T21:54:33.791Z,100.00
2022-12-15T21:57:08.153Z,100.00
2022-12-15T21:59:44.354Z,100.00
2022-12-15T22:02:26.830Z,100.00
2022-12-15T22:05:01.708Z,100.00
2022-12-15T22:07:35.832Z,100.00
2022-12-15T22:10:10.968Z,100.00
2022-12-15T22:12:51.436Z,100.00
2022-12-15T22:15:30.460Z,100.00
2022-12-15T22:18:06.212Z,100.00
2022-12-15T22:20:42.514Z,100.00
2022-12-15T22:23:17.158Z,100.00
2022-12-15T22:25:56.189Z,100.00
2022-12-15T22:28:30.989Z,100.00
2022-12-15T22:31:07.934Z,100.00
2022-12-15T22:33:43.069Z,100.00
2022-12-15T22:36:17.581Z,100.00
2022-12-15T22:38:51.751Z,100.00
2022-12-15T22:41:26.398Z,100.00
2022-12-15T22:44:00.552Z,100.00
2022-12-15T22:46:36.574Z,100.00
2022-12-15T22:49:16.271Z,100.00
2022-12-15T22:51:50.859Z,100.00
2022-12-15T22:54:27.151Z,100.00
2022-12-15T22:57:05.411Z,100.00
2022-12-15T22:59:43.678Z,100.00
2022-12-15T23:02:19.548Z,100.00
2022-12-15T23:04:53.807Z,100.00
2022-12-15T23:07:29.597Z,100.00
2022-12-15T23:10:21.553Z,100.00
2022-12-15T23:12:55.943Z,100.00
2022-12-15T23:15:48.339Z,100.00
2022-12-15T23:18:24.239Z,100.00
2022-12-15T23:20:58.652Z,100.00
2022-12-15T23:23:33.449Z,100.00
2022-12-15T23:26:07.988Z,100.00
2022-12-15T23:28:43.327Z,100.00
2022-12-15T23:31:17.838Z,100.00
2022-12-15T23:33:54.095Z,100.00
2022-12-15T23:36:28.708Z,100.00
2022-12-15T23:39:03.241Z,100.00
2022-12-15T23:41:37.327Z,100.00
2022-12-15T23:44:14.328Z,100.00
2022-12-15T23:46:48.522Z,100.00
2022-12-15T23:49:24.423Z,100.00
2022-12-15T23:51:58.636Z,100.00
2022-12-15T23:54:33.115Z,100.00
2022-12-15T23:57:07.320Z,100.00
2022-12-15T23:59:42.725Z,100.00
